sensor_id;sensor_type;location;lat;lon;timestamp;pressure;altitude;pressure_sealevel;temperature;humidity
12799;BME280;19250;42.646;26.980;2022-11-20T00:01:05;98673.72;;;18.34;100.00
12799;BME280;19250;42.646;26.980;2022-11-20T00:03:33;98676.16;;;18.42;100.00
12799;BME280;19250;42.646;26.980;2022-11-20T00:06:03;98671.94;;;18.60;100.00
12799;BME280;19250;42.646;26.980;2022-11-20T00:08:31;98654.56;;;18.49;100.00
12799;BME280;19250;42.646;26.980;2022-11-20T00:11:02;98656.00;;;18.52;100.00
12799;BME280;19250;42.646;26.980;2022-11-20T00:13:30;98662.53;;;18.31;100.00
12799;BME280;19250;42.646;26.980;2022-11-20T00:15:58;98657.38;;;18.23;100.00
12799;BME280;19250;42.646;26.980;2022-11-20T00:18:25;98666.25;;;18.30;100.00
12799;BME280;19250;42.646;26.980;2022-11-20T00:20:52;98664.16;;;18.32;100.00
12799;BME280;19250;42.646;26.980;2022-11-20T00:23:21;98664.31;;;18.43;100.00
12799;BME280;19250;42.646;26.980;2022-11-20T00:25:48;98663.25;;;18.44;100.00
12799;BME280;19250;42.646;26.980;2022-11-20T00:28:16;98651.75;;;18.24;100.00
12799;BME280;19250;42.646;26.980;2022-11-20T00:30:43;98663.78;;;18.28;100.00
12799;BME280;19250;42.646;26.980;2022-11-20T00:33:10;98646.41;;;18.18;100.00
12799;BME280;19250;42.646;26.980;2022-11-20T00:35:37;98653.88;;;18.22;100.00
12799;BME280;19250;42.646;26.980;2022-11-20T00:38:05;98645.78;;;18.22;100.00
12799;BME280;19250;42.646;26.980;2022-11-20T00:40:33;98650.72;;;18.25;100.00
12799;BME280;19250;42.646;26.980;2022-11-20T00:43:01;98642.63;;;18.25;100.00
12799;BME280;19250;42.646;26.980;2022-11-20T00:45:28;98655.31;;;18.18;100.00
12799;BME280;19250;42.646;26.980;2022-11-20T00:47:55;98649.91;;;18.25;100.00
12799;BME280;19250;42.646;26.980;2022-11-20T00:50:22;98629.63;;;18.09;100.00
12799;BME280;19250;42.646;26.980;2022-11-20T00:52:50;98636.81;;;18.28;100.00
12799;BME280;19250;42.646;26.980;2022-11-20T00:55:17;98640.97;;;18.24;100.00
12799;BME280;19250;42.646;26.980;2022-11-20T00:57:45;98631.09;;;18.05;100.00
12799;BME280;19250;42.646;26.980;2022-11-20T01:00:13;98642.25;;;18.22;100.00
12799;BME280;19250;42.646;26.980;2022-11-20T01:02:40;98650.97;;;18.17;100.00
12799;BME280;19250;42.646;26.980;2022-11-20T01:05:08;98647.84;;;18.20;100.00
12799;BME280;19250;42.646;26.980;2022-11-20T01:07:35;98652.81;;;18.23;100.00
12799;BME280;19250;42.646;26.980;2022-11-20T01:10:02;98650.38;;;18.15;100.00
12799;BME280;19250;42.646;26.980;2022-11-20T01:12:30;98644.09;;;18.21;100.00
12799;BME280;19250;42.646;26.980;2022-11-20T01:14:58;98642.25;;;18.15;100.00
12799;BME280;19250;42.646;26.980;2022-11-20T01:17:26;98636.44;;;18.18;100.00
12799;BME280;19250;42.646;26.980;2022-11-20T01:19:53;98651.34;;;18.27;100.00
12799;BME280;19250;42.646;26.980;2022-11-20T01:22:20;98654.13;;;18.45;100.00
12799;BME280;19250;42.646;26.980;2022-11-20T01:24:47;98651.97;;;18.61;100.00
12799;BME280;19250;42.646;26.980;2022-11-20T01:27:15;98669.84;;;18.62;100.00
12799;BME280;19250;42.646;26.980;2022-11-20T01:29:42;98649.63;;;18.71;100.00
12799;BME280;19250;42.646;26.980;2022-11-20T01:32:10;98658.94;;;18.75;100.00
12799;BME280;19250;42.646;26.980;2022-11-20T01:34:38;98657.63;;;18.84;100.00
12799;BME280;19250;42.646;26.980;2022-11-20T01:37:05;98652.59;;;18.63;100.00
12799;BME280;19250;42.646;26.980;2022-11-20T01:39:32;98651.25;;;18.40;100.00
12799;BME280;19250;42.646;26.980;2022-11-20T01:42:00;98642.78;;;18.37;100.00
12799;BME280;19250;42.646;26.980;2022-11-20T01:44:54;98627.88;;;18.59;100.00
12799;BME280;19250;42.646;26.980;2022-11-20T01:47:30;98630.13;;;18.31;100.00
12799;BME280;19250;42.646;26.980;2022-11-20T01:50:03;98632.03;;;18.24;100.00
12799;BME280;19250;42.646;26.980;2022-11-20T01:52:35;98624.81;;;18.18;100.00
12799;BME280;19250;42.646;26.980;2022-11-20T01:55:06;98621.91;;;18.19;100.00
12799;BME280;19250;42.646;26.980;2022-11-20T01:57:35;98610.13;;;18.07;100.00
12799;BME280;19250;42.646;26.980;2022-11-20T02:00:06;98611.16;;;18.13;100.00
12799;BME280;19250;42.646;26.980;2022-11-20T02:02:36;98612.88;;;18.01;100.00
12799;BME280;19250;42.646;26.980;2022-11-20T02:05:12;98615.59;;;17.94;100.00
12799;BME280;19250;42.646;26.980;2022-11-20T02:07:41;98620.34;;;17.99;100.00
12799;BME280;19250;42.646;26.980;2022-11-20T02:10:08;98620.56;;;17.97;100.00
12799;BME280;19250;42.646;26.980;2022-11-20T02:12:36;98617.44;;;18.00;100.00
12799;BME280;19250;42.646;26.980;2022-11-20T02:15:20;98611.19;;;18.06;100.00
12799;BME280;19250;42.646;26.980;2022-11-20T02:17:49;98603.28;;;18.05;100.00
12799;BME280;19250;42.646;26.980;2022-11-20T02:20:17;98607.25;;;18.02;100.00
12799;BME280;19250;42.646;26.980;2022-11-20T02:22:50;98599.31;;;18.07;100.00
12799;BME280;19250;42.646;26.980;2022-11-20T02:25:22;98589.16;;;18.09;100.00
12799;BME280;19250;42.646;26.980;2022-11-20T02:27:51;98597.25;;;18.09;100.00
12799;BME280;19250;42.646;26.980;2022-11-20T02:30:18;98606.63;;;18.07;100.00
12799;BME280;19250;42.646;26.980;2022-11-20T02:32:45;98600.78;;;18.10;100.00
12799;BME280;19250;42.646;26.980;2022-11-20T02:35:42;98593.31;;;18.05;100.00
12799;BME280;19250;42.646;26.980;2022-11-20T02:38:10;98605.13;;;18.11;100.00
12799;BME280;19250;42.646;26.980;2022-11-20T02:40:39;98608.22;;;18.14;100.00
12799;BME280;19250;42.646;26.980;2022-11-20T02:43:07;98607.06;;;18.04;100.00
12799;BME280;19250;42.646;26.980;2022-11-20T02:45:35;98603.53;;;18.03;100.00
12799;BME280;19250;42.646;26.980;2022-11-20T02:48:02;98613.69;;;18.01;100.00
12799;BME280;19250;42.646;26.980;2022-11-20T02:50:29;98625.53;;;18.00;100.00
12799;BME280;19250;42.646;26.980;2022-11-20T02:52:57;98613.84;;;18.13;100.00
12799;BME280;19250;42.646;26.980;2022-11-20T02:55:24;98620.75;;;18.02;100.00
12799;BME280;19250;42.646;26.980;2022-11-20T02:57:53;98608.09;;;18.03;100.00
12799;BME280;19250;42.646;26.980;2022-11-20T03:00:20;98599.56;;;18.06;100.00
12799;BME280;19250;42.646;26.980;2022-11-20T03:02:47;98604.38;;;17.97;100.00
12799;BME280;19250;42.646;26.980;2022-11-20T03:05:15;98608.28;;;18.01;100.00
12799;BME280;19250;42.646;26.980;2022-11-20T03:07:43;98594.22;;;17.92;100.00
12799;BME280;19250;42.646;26.980;2022-11-20T03:10:11;98595.06;;;17.93;100.00
12799;BME280;19250;42.646;26.980;2022-11-20T03:12:38;98585.34;;;17.85;100.00
12799;BME280;19250;42.646;26.980;2022-11-20T03:15:08;98595.44;;;17.97;100.00
12799;BME280;19250;42.646;26.980;2022-11-20T03:17:36;98601.84;;;18.02;100.00
12799;BME280;19250;42.646;26.980;2022-11-20T03:20:04;98601.25;;;18.00;100.00
12799;BME280;19250;42.646;26.980;2022-11-20T03:22:31;98592.09;;;18.01;100.00
12799;BME280;19250;42.646;26.980;2022-11-20T03:24:58;98595.84;;;18.00;100.00
12799;BME280;19250;42.646;26.980;2022-11-20T03:27:26;98581.69;;;18.05;100.00
12799;BME280;19250;42.646;26.980;2022-11-20T03:29:53;98593.78;;;17.95;100.00
12799;BME280;19250;42.646;26.980;2022-11-20T03:32:22;98592.31;;;18.00;100.00
12799;BME280;19250;42.646;26.980;2022-11-20T03:34:49;98589.22;;;17.96;100.00
12799;BME280;19250;42.646;26.980;2022-11-20T03:37:16;98594.03;;;17.94;100.00
12799;BME280;19250;42.646;26.980;2022-11-20T03:39:43;98582.16;;;17.95;100.00
12799;BME280;19250;42.646;26.980;2022-11-20T03:42:11;98580.53;;;17.94;100.00
12799;BME280;19250;42.646;26.980;2022-11-20T03:44:51;98575.91;;;18.01;100.00
12799;BME280;19250;42.646;26.980;2022-11-20T03:47:19;98558.25;;;18.05;100.00
12799;BME280;19250;42.646;26.980;2022-11-20T03:49:47;98547.28;;;18.00;100.00
12799;BME280;19250;42.646;26.980;2022-11-20T03:52:15;98562.38;;;18.08;100.00
12799;BME280;19250;42.646;26.980;2022-11-20T03:54:42;98549.28;;;18.11;100.00
12799;BME280;19250;42.646;26.980;2022-11-20T03:57:09;98564.44;;;18.12;100.00
12799;BME280;19250;42.646;26.980;2022-11-20T03:59:36;98563.84;;;18.10;100.00
12799;BME280;19250;42.646;26.980;2022-11-20T04:02:04;98565.03;;;18.14;100.00
12799;BME280;19250;42.646;26.980;2022-11-20T04:04:31;98542.50;;;18.02;100.00
12799;BME280;19250;42.646;26.980;2022-11-20T04:07:00;98557.63;;;18.10;100.00
12799;BME280;19250;42.646;26.980;2022-11-20T04:09:27;98554.28;;;18.08;100.00
12799;BME280;19250;42.646;26.980;2022-11-20T04:11:54;98542.09;;;17.99;100.00
12799;BME280;19250;42.646;26.980;2022-11-20T04:14:21;98560.75;;;18.07;100.00
12799;BME280;19250;42.646;26.980;2022-11-20T04:16:49;98557.44;;;17.98;100.00
12799;BME280;19250;42.646;26.980;2022-11-20T04:19:16;98580.88;;;18.04;100.00
12799;BME280;19250;42.646;26.980;2022-11-20T04:21:44;98559.28;;;18.04;100.00
12799;BME280;19250;42.646;26.980;2022-11-20T04:24:13;98555.97;;;18.02;100.00
12799;BME280;19250;42.646;26.980;2022-11-20T04:26:40;98552.66;;;18.07;100.00
12799;BME280;19250;42.646;26.980;2022-11-20T04:29:10;98550.19;;;17.99;100.00
12799;BME280;19250;42.646;26.980;2022-11-20T04:31:37;98549.78;;;17.95;100.00
12799;BME280;19250;42.646;26.980;2022-11-20T04:34:06;98561.81;;;17.99;100.00
12799;BME280;19250;42.646;26.980;2022-11-20T04:36:50;98543.59;;;17.94;100.00
12799;BME280;19250;42.646;26.980;2022-11-20T04:39:19;98546.50;;;17.93;100.00
12799;BME280;19250;42.646;26.980;2022-11-20T04:41:46;98546.91;;;17.97;100.00
12799;BME280;19250;42.646;26.980;2022-11-20T04:44:13;98556.69;;;17.91;100.00
12799;BME280;19250;42.646;26.980;2022-11-20T04:46:41;98554.81;;;17.91;100.00
12799;BME280;19250;42.646;26.980;2022-11-20T04:49:10;98552.56;;;17.88;100.00
12799;BME280;19250;42.646;26.980;2022-11-20T04:51:38;98568.31;;;17.91;100.00
12799;BME280;19250;42.646;26.980;2022-11-20T05:00:50;98590.69;;;17.92;100.00
12799;BME280;19250;42.646;26.980;2022-11-20T05:03:17;98585.28;;;17.92;100.00
12799;BME280;19250;42.646;26.980;2022-11-20T05:05:44;98599.44;;;17.87;100.00
12799;BME280;19250;42.646;26.980;2022-11-20T05:08:12;98605.03;;;17.86;100.00
12799;BME280;19250;42.646;26.980;2022-11-20T05:10:39;98614.34;;;17.97;100.00
12799;BME280;19250;42.646;26.980;2022-11-20T05:13:06;98612.94;;;17.87;100.00
12799;BME280;19250;42.646;26.980;2022-11-20T05:15:33;98607.94;;;17.91;100.00
12799;BME280;19250;42.646;26.980;2022-11-20T05:21:23;98601.97;;;17.82;100.00
12799;BME280;19250;42.646;26.980;2022-11-20T05:23:50;98607.56;;;17.81;100.00
12799;BME280;19250;42.646;26.980;2022-11-20T05:26:19;98603.41;;;17.85;100.00
12799;BME280;19250;42.646;26.980;2022-11-20T05:28:47;98606.72;;;17.80;100.00
12799;BME280;19250;42.646;26.980;2022-11-20T05:31:16;98600.50;;;17.80;100.00
12799;BME280;19250;42.646;26.980;2022-11-20T05:33:44;98597.81;;;17.80;100.00
12799;BME280;19250;42.646;26.980;2022-11-20T05:36:13;98601.31;;;17.87;100.00
12799;BME280;19250;42.646;26.980;2022-11-20T05:38:43;98596.31;;;17.90;100.00
12799;BME280;19250;42.646;26.980;2022-11-20T05:41:12;98596.78;;;17.81;100.00
12799;BME280;19250;42.646;26.980;2022-11-20T05:43:40;98597.16;;;17.91;100.00
12799;BME280;19250;42.646;26.980;2022-11-20T05:46:09;98603.41;;;17.85;100.00
12799;BME280;19250;42.646;26.980;2022-11-20T05:48:38;98606.69;;;17.87;100.00
12799;BME280;19250;42.646;26.980;2022-11-20T05:51:07;98606.28;;;17.90;100.00
12799;BME280;19250;42.646;26.980;2022-11-20T05:53:35;98617.06;;;17.90;100.00
12799;BME280;19250;42.646;26.980;2022-11-20T05:56:05;98623.06;;;17.92;100.00
12799;BME280;19250;42.646;26.980;2022-11-20T05:58:34;98613.53;;;17.89;100.00
12799;BME280;19250;42.646;26.980;2022-11-20T06:01:05;98634.81;;;18.11;100.00
12799;BME280;19250;42.646;26.980;2022-11-20T06:03:33;98638.69;;;18.21;100.00
12799;BME280;19250;42.646;26.980;2022-11-20T06:06:01;98631.41;;;18.28;100.00
12799;BME280;19250;42.646;26.980;2022-11-20T06:08:28;98645.34;;;18.25;100.00
12799;BME280;19250;42.646;26.980;2022-11-20T06:10:56;98640.53;;;18.27;100.00
12799;BME280;19250;42.646;26.980;2022-11-20T06:13:25;98652.38;;;18.26;100.00
12799;BME280;19250;42.646;26.980;2022-11-20T06:15:53;98657.34;;;18.29;100.00
12799;BME280;19250;42.646;26.980;2022-11-20T06:18:20;98650.91;;;18.30;100.00
12799;BME280;19250;42.646;26.980;2022-11-20T06:20:47;98658.72;;;18.38;100.00
12799;BME280;19250;42.646;26.980;2022-11-20T06:23:14;98657.44;;;18.47;100.00
12799;BME280;19250;42.646;26.980;2022-11-20T06:25:42;98644.28;;;18.26;100.00
12799;BME280;19250;42.646;26.980;2022-11-20T06:28:10;98669.94;;;18.42;100.00
12799;BME280;19250;42.646;26.980;2022-11-20T06:30:44;98654.56;;;18.42;100.00
12799;BME280;19250;42.646;26.980;2022-11-20T06:33:12;98645.88;;;18.40;100.00
12799;BME280;19250;42.646;26.980;2022-11-20T06:35:39;98653.28;;;18.52;100.00
12799;BME280;19250;42.646;26.980;2022-11-20T06:38:06;98660.78;;;18.43;100.00
12799;BME280;19250;42.646;26.980;2022-11-20T06:40:34;98651.19;;;18.47;100.00
12799;BME280;19250;42.646;26.980;2022-11-20T06:43:01;98647.47;;;18.48;100.00
12799;BME280;19250;42.646;26.980;2022-11-20T06:45:28;98645.75;;;18.60;100.00
12799;BME280;19250;42.646;26.980;2022-11-20T06:47:58;98637.91;;;18.52;100.00
12799;BME280;19250;42.646;26.980;2022-11-20T06:50:25;98637.00;;;18.65;100.00
12799;BME280;19250;42.646;26.980;2022-11-20T06:52:53;98636.56;;;18.68;100.00
12799;BME280;19250;42.646;26.980;2022-11-20T06:55:20;98634.06;;;18.66;100.00
12799;BME280;19250;42.646;26.980;2022-11-20T06:57:47;98635.34;;;18.64;100.00
12799;BME280;19250;42.646;26.980;2022-11-20T07:00:15;98632.03;;;18.62;100.00
12799;BME280;19250;42.646;26.980;2022-11-20T07:02:42;98645.06;;;18.71;100.00
12799;BME280;19250;42.646;26.980;2022-11-20T07:05:11;98626.50;;;18.75;100.00
12799;BME280;19250;42.646;26.980;2022-11-20T07:07:38;98633.19;;;18.72;100.00
12799;BME280;19250;42.646;26.980;2022-11-20T07:10:06;98630.28;;;18.74;100.00
12799;BME280;19250;42.646;26.980;2022-11-20T07:12:33;98634.38;;;18.83;100.00
12799;BME280;19250;42.646;26.980;2022-11-20T07:15:00;98628.97;;;18.83;100.00
12799;BME280;19250;42.646;26.980;2022-11-20T07:17:28;98571.25;;;18.53;100.00
12799;BME280;19250;42.646;26.980;2022-11-20T07:19:55;98632.72;;;18.82;100.00
12799;BME280;19250;42.646;26.980;2022-11-20T07:22:24;98640.22;;;18.80;100.00
12799;BME280;19250;42.646;26.980;2022-11-20T07:24:51;98642.88;;;18.86;100.00
12799;BME280;19250;42.646;26.980;2022-11-20T07:27:18;98643.06;;;18.85;100.00
12799;BME280;19250;42.646;26.980;2022-11-20T07:29:45;98653.00;;;18.91;100.00
12799;BME280;19250;42.646;26.980;2022-11-20T07:32:13;98654.88;;;18.90;100.00
12799;BME280;19250;42.646;26.980;2022-11-20T07:34:40;98646.00;;;18.83;100.00
12799;BME280;19250;42.646;26.980;2022-11-20T07:37:07;98658.63;;;18.89;100.00
12799;BME280;19250;42.646;26.980;2022-11-20T07:39:36;98653.88;;;18.85;100.00
12799;BME280;19250;42.646;26.980;2022-11-20T07:42:03;98653.53;;;18.99;100.00
12799;BME280;19250;42.646;26.980;2022-11-20T07:44:30;98651.53;;;18.95;100.00
12799;BME280;19250;42.646;26.980;2022-11-20T07:46:58;98658.84;;;18.88;100.00
12799;BME280;19250;42.646;26.980;2022-11-20T07:49:25;98659.81;;;18.93;100.00
12799;BME280;19250;42.646;26.980;2022-11-20T07:51:52;98662.47;;;19.00;100.00
12799;BME280;19250;42.646;26.980;2022-11-20T07:54:20;98660.66;;;18.94;100.00
12799;BME280;19250;42.646;26.980;2022-11-20T07:56:49;98657.53;;;18.97;100.00
12799;BME280;19250;42.646;26.980;2022-11-20T07:59:16;98663.53;;;18.99;100.00
12799;BME280;19250;42.646;26.980;2022-11-20T08:01:44;98657.06;;;19.00;100.00
12799;BME280;19250;42.646;26.980;2022-11-20T08:04:11;98667.78;;;19.13;100.00
12799;BME280;19250;42.646;26.980;2022-11-20T08:06:38;98657.38;;;19.17;100.00
12799;BME280;19250;42.646;26.980;2022-11-20T08:09:05;98660.38;;;19.02;100.00
12799;BME280;19250;42.646;26.980;2022-11-20T08:11:33;98656.69;;;18.96;100.00
12799;BME280;19250;42.646;26.980;2022-11-20T08:14:19;98651.22;;;19.03;100.00
12799;BME280;19250;42.646;26.980;2022-11-20T08:16:47;98619.16;;;18.88;100.00
12799;BME280;19250;42.646;26.980;2022-11-20T08:19:16;98655.81;;;19.02;100.00
12799;BME280;19250;42.646;26.980;2022-11-20T08:21:43;98661.06;;;18.97;100.00
12799;BME280;19250;42.646;26.980;2022-11-20T08:24:11;98659.19;;;18.98;100.00
12799;BME280;19250;42.646;26.980;2022-11-20T08:26:39;98658.31;;;19.04;100.00
12799;BME280;19250;42.646;26.980;2022-11-20T08:29:07;98658.25;;;19.11;100.00
12799;BME280;19250;42.646;26.980;2022-11-20T08:31:35;98657.06;;;19.00;100.00
12799;BME280;19250;42.646;26.980;2022-11-20T08:34:03;98650.41;;;19.02;100.00
12799;BME280;19250;42.646;26.980;2022-11-20T08:36:32;98639.28;;;18.92;100.00
12799;BME280;19250;42.646;26.980;2022-11-20T08:38:59;98651.50;;;19.20;100.00
12799;BME280;19250;42.646;26.980;2022-11-20T08:41:27;98640.56;;;19.08;100.00
12799;BME280;19250;42.646;26.980;2022-11-20T08:44:00;98642.63;;;19.13;100.00
12799;BME280;19250;42.646;26.980;2022-11-20T08:46:32;98656.53;;;19.16;100.00
12799;BME280;19250;42.646;26.980;2022-11-20T08:49:02;98662.31;;;19.20;100.00
12799;BME280;19250;42.646;26.980;2022-11-20T08:51:30;98657.66;;;19.27;100.00
12799;BME280;19250;42.646;26.980;2022-11-20T08:53:57;98653.13;;;19.21;100.00
12799;BME280;19250;42.646;26.980;2022-11-20T08:56:24;98655.19;;;19.25;100.00
12799;BME280;19250;42.646;26.980;2022-11-20T08:58:52;98658.50;;;19.27;100.00
12799;BME280;19250;42.646;26.980;2022-11-20T09:01:20;98660.28;;;19.40;100.00
12799;BME280;19250;42.646;26.980;2022-11-20T09:03:47;98661.94;;;19.41;100.00
12799;BME280;19250;42.646;26.980;2022-11-20T09:06:16;98665.56;;;19.28;100.00
12799;BME280;19250;42.646;26.980;2022-11-20T09:08:45;98665.91;;;19.38;100.00
12799;BME280;19250;42.646;26.980;2022-11-20T09:11:12;98666.28;;;19.42;100.00
12799;BME280;19250;42.646;26.980;2022-11-20T09:13:39;98659.53;;;19.51;100.00
12799;BME280;19250;42.646;26.980;2022-11-20T09:16:08;98642.63;;;19.55;100.00
12799;BME280;19250;42.646;26.980;2022-11-20T09:18:36;98631.22;;;19.53;100.00
12799;BME280;19250;42.646;26.980;2022-11-20T09:21:06;98657.22;;;19.73;100.00
12799;BME280;19250;42.646;26.980;2022-11-20T09:23:35;98618.47;;;19.36;100.00
12799;BME280;19250;42.646;26.980;2022-11-20T09:26:03;98624.28;;;19.39;100.00
12799;BME280;19250;42.646;26.980;2022-11-20T09:28:31;98636.03;;;19.70;100.00
12799;BME280;19250;42.646;26.980;2022-11-20T09:30:59;98625.81;;;19.53;100.00
12799;BME280;19250;42.646;26.980;2022-11-20T09:33:26;98640.25;;;19.47;100.00
12799;BME280;19250;42.646;26.980;2022-11-20T09:35:53;98609.66;;;19.47;100.00
12799;BME280;19250;42.646;26.980;2022-11-20T09:38:21;98613.78;;;19.49;100.00
12799;BME280;19250;42.646;26.980;2022-11-20T09:40:56;98615.72;;;19.61;100.00
12799;BME280;19250;42.646;26.980;2022-11-20T09:43:32;98607.09;;;19.52;100.00
12799;BME280;19250;42.646;26.980;2022-11-20T09:46:09;98604.91;;;19.61;100.00
12799;BME280;19250;42.646;26.980;2022-11-20T09:48:57;98605.53;;;19.63;100.00
12799;BME280;19250;42.646;26.980;2022-11-20T09:51:34;98603.28;;;19.78;100.00
12799;BME280;19250;42.646;26.980;2022-11-20T09:54:14;98610.25;;;19.67;100.00
12799;BME280;19250;42.646;26.980;2022-11-20T09:56:46;98605.22;;;19.71;100.00
12799;BME280;19250;42.646;26.980;2022-11-20T09:59:28;98595.22;;;19.71;100.00
12799;BME280;19250;42.646;26.980;2022-11-20T10:01:59;98603.72;;;19.57;100.00
12799;BME280;19250;42.646;26.980;2022-11-20T10:04:28;98588.69;;;19.61;100.00
12799;BME280;19250;42.646;26.980;2022-11-20T10:07:04;98566.16;;;19.48;100.00
12799;BME280;19250;42.646;26.980;2022-11-20T10:09:35;98578.63;;;19.68;100.00
12799;BME280;19250;42.646;26.980;2022-11-20T10:12:14;98578.75;;;19.73;100.00
12799;BME280;19250;42.646;26.980;2022-11-20T10:14:58;98565.69;;;19.70;100.00
12799;BME280;19250;42.646;26.980;2022-11-20T10:17:53;98571.63;;;19.78;100.00
12799;BME280;19250;42.646;26.980;2022-11-20T10:20:29;98568.09;;;19.78;100.00
12799;BME280;19250;42.646;26.980;2022-11-20T10:23:22;98561.59;;;19.79;100.00
12799;BME280;19250;42.646;26.980;2022-11-20T10:25:55;98547.28;;;19.78;100.00
12799;BME280;19250;42.646;26.980;2022-11-20T10:28:35;98570.09;;;19.82;100.00
12799;BME280;19250;42.646;26.980;2022-11-20T10:31:10;98548.06;;;19.79;100.00
12799;BME280;19250;42.646;26.980;2022-11-20T10:33:40;98563.09;;;19.93;100.00
12799;BME280;19250;42.646;26.980;2022-11-20T10:36:13;98556.94;;;19.86;100.00
12799;BME280;19250;42.646;26.980;2022-11-20T10:38:44;98556.72;;;19.87;100.00
12799;BME280;19250;42.646;26.980;2022-11-20T10:41:19;98568.28;;;19.94;100.00
12799;BME280;19250;42.646;26.980;2022-11-20T10:44:02;98560.03;;;19.89;100.00
12799;BME280;19250;42.646;26.980;2022-11-20T10:46:36;98563.56;;;19.90;100.00
12799;BME280;19250;42.646;26.980;2022-11-20T10:49:13;98560.09;;;19.83;100.00
12799;BME280;19250;42.646;26.980;2022-11-20T10:51:51;98559.19;;;19.89;100.00
12799;BME280;19250;42.646;26.980;2022-11-20T10:54:31;98562.81;;;19.83;100.00
12799;BME280;19250;42.646;26.980;2022-11-20T10:57:07;98563.84;;;19.82;100.00
12799;BME280;19250;42.646;26.980;2022-11-20T10:59:55;98565.34;;;19.96;100.00
12799;BME280;19250;42.646;26.980;2022-11-20T11:02:33;98562.72;;;19.89;100.00
12799;BME280;19250;42.646;26.980;2022-11-20T11:05:13;98543.13;;;19.76;100.00
12799;BME280;19250;42.646;26.980;2022-11-20T11:07:44;98566.34;;;19.83;100.00
12799;BME280;19250;42.646;26.980;2022-11-20T11:10:16;98565.38;;;19.78;100.00
12799;BME280;19250;42.646;26.980;2022-11-20T11:12:45;98569.81;;;19.90;100.00
12799;BME280;19250;42.646;26.980;2022-11-20T11:15:26;98573.19;;;19.86;100.00
12799;BME280;19250;42.646;26.980;2022-11-20T11:17:54;98534.22;;;19.75;100.00
12799;BME280;19250;42.646;26.980;2022-11-20T11:20:22;98555.81;;;19.93;100.00
12799;BME280;19250;42.646;26.980;2022-11-20T11:22:51;98563.97;;;20.05;100.00
12799;BME280;19250;42.646;26.980;2022-11-20T11:25:25;98542.09;;;19.77;100.00
12799;BME280;19250;42.646;26.980;2022-11-20T11:27:57;98549.81;;;20.03;100.00
12799;BME280;19250;42.646;26.980;2022-11-20T11:30:27;98543.03;;;20.12;100.00
12799;BME280;19250;42.646;26.980;2022-11-20T11:33:06;98561.03;;;20.06;100.00
12799;BME280;19250;42.646;26.980;2022-11-20T11:35:38;98557.06;;;19.91;100.00
12799;BME280;19250;42.646;26.980;2022-11-20T11:38:10;98557.69;;;19.93;100.00
12799;BME280;19250;42.646;26.980;2022-11-20T11:40:39;98539.38;;;20.06;100.00
12799;BME280;19250;42.646;26.980;2022-11-20T11:43:17;98510.66;;;20.05;100.00
12799;BME280;19250;42.646;26.980;2022-11-20T11:46:01;98529.81;;;20.04;100.00
12799;BME280;19250;42.646;26.980;2022-11-20T11:48:28;98529.38;;;20.07;100.00
12799;BME280;19250;42.646;26.980;2022-11-20T11:50:56;98529.41;;;20.19;100.00
12799;BME280;19250;42.646;26.980;2022-11-20T11:53:25;98528.28;;;20.26;100.00
12799;BME280;19250;42.646;26.980;2022-11-20T11:55:58;98527.03;;;20.10;100.00
12799;BME280;19250;42.646;26.980;2022-11-20T11:58:41;98531.72;;;20.33;100.00
12799;BME280;19250;42.646;26.980;2022-11-20T12:01:20;98530.56;;;20.11;100.00
12799;BME280;19250;42.646;26.980;2022-11-20T12:03:58;98533.44;;;20.28;100.00
12799;BME280;19250;42.646;26.980;2022-11-20T12:06:28;98520.16;;;19.96;100.00
12799;BME280;19250;42.646;26.980;2022-11-20T12:09:01;98530.28;;;20.01;100.00
12799;BME280;19250;42.646;26.980;2022-11-20T12:11:34;98524.31;;;20.10;100.00
12799;BME280;19250;42.646;26.980;2022-11-20T12:14:11;98529.00;;;20.03;100.00
12799;BME280;19250;42.646;26.980;2022-11-20T12:16:43;98482.09;;;19.80;100.00
12799;BME280;19250;42.646;26.980;2022-11-20T12:19:11;98515.34;;;19.98;100.00
12799;BME280;19250;42.646;26.980;2022-11-20T12:21:49;98519.59;;;20.06;100.00
12799;BME280;19250;42.646;26.980;2022-11-20T12:24:38;98510.06;;;20.15;100.00
12799;BME280;19250;42.646;26.980;2022-11-20T12:27:23;98511.00;;;20.09;100.00
12799;BME280;19250;42.646;26.980;2022-11-20T12:30:00;98501.06;;;20.21;100.00
12799;BME280;19250;42.646;26.980;2022-11-20T12:35:42;98497.72;;;20.07;100.00
12799;BME280;19250;42.646;26.980;2022-11-20T12:38:39;98491.47;;;20.07;100.00
12799;BME280;19250;42.646;26.980;2022-11-20T12:41:16;98489.16;;;20.22;100.00
12799;BME280;19250;42.646;26.980;2022-11-20T12:44:08;98495.22;;;20.36;100.00
12799;BME280;19250;42.646;26.980;2022-11-20T12:47:07;98485.16;;;20.25;100.00
12799;BME280;19250;42.646;26.980;2022-11-20T12:49:47;98482.16;;;20.03;100.00
12799;BME280;19250;42.646;26.980;2022-11-20T12:52:26;98480.28;;;20.03;100.00
12799;BME280;19250;42.646;26.980;2022-11-20T12:55:13;98478.19;;;20.05;100.00
12799;BME280;19250;42.646;26.980;2022-11-20T12:57:48;98481.00;;;20.10;100.00
12799;BME280;19250;42.646;26.980;2022-11-20T13:00:19;98468.13;;;19.94;100.00
12799;BME280;19250;42.646;26.980;2022-11-20T13:03:03;98478.97;;;20.06;100.00
12799;BME280;19250;42.646;26.980;2022-11-20T13:05:43;98474.03;;;20.33;100.00
12799;BME280;19250;42.646;26.980;2022-11-20T13:08:20;98464.13;;;19.97;100.00
12799;BME280;19250;42.646;26.980;2022-11-20T13:10:51;98456.75;;;20.04;100.00